createdAt,value
2022-12-13T00:08:26.618Z,-4.74
2022-12-13T00:22:37.605Z,-4.8
2022-12-13T00:50:58.634Z,-4.77
2022-12-13T01:05:05.390Z,-4.83
2022-12-13T01:19:16.377Z,-4.92
2022-12-13T01:33:28.674Z,-4.93
2022-12-13T01:47:35.229Z,-5.03
2022-12-13T02:01:43.285Z,-5.13
2022-12-13T02:15:55.332Z,-5.17
2022-12-13T02:30:04.019Z,-5.2
2022-12-13T02:44:21.642Z,-5.23
2022-12-13T02:58:21.141Z,-5.35
2022-12-13T03:12:33.174Z,-5.39
2022-12-13T03:26:41.979Z,-5.49
2022-12-13T03:40:49.828Z,-5.63
2022-12-13T03:55:00.192Z,-5.76
2022-12-13T04:09:11.099Z,-5.82
2022-12-13T04:23:20.680Z,-5.97
2022-12-13T04:37:32.692Z,-6.04
2022-12-13T04:51:39.386Z,-6.02
2022-12-13T05:05:50.467Z,-6.04
2022-12-13T05:20:01.118Z,-6.08
2022-12-13T05:34:11.362Z,-6.06
2022-12-13T05:48:24.327Z,-6.08
2022-12-13T06:02:32.295Z,-6.06
2022-12-13T06:16:42.448Z,-6.02
2022-12-13T06:30:53.014Z,-6.03
2022-12-13T06:45:03.865Z,-5.99
2022-12-13T06:59:15.567Z,-6.01
2022-12-13T07:13:26.903Z,-6
2022-12-13T07:27:38.137Z,-6.04
2022-12-13T07:41:48.460Z,-5.97
2022-12-13T07:55:59.454Z,-5.92
2022-12-13T08:10:10.145Z,-5.85
2022-12-13T08:24:20.442Z,-5.72
2022-12-13T08:38:31.789Z,-5.62
2022-12-13T08:52:42.925Z,-5.54
2022-12-13T09:06:53.812Z,-5.39
2022-12-13T09:21:10.605Z,-5.08
2022-12-13T09:35:14.661Z,-4.91
2022-12-13T09:49:25.771Z,-4.65
2022-12-13T10:03:37.978Z,-4.03
2022-12-13T10:17:55.042Z,-3.69
2022-12-13T10:20:32.549Z,-3.58
2022-12-13T10:30:03.811Z,-3.47
2022-12-13T10:39:37.968Z,-3.31
2022-12-13T10:49:05.842Z,-3.15
2022-12-13T10:58:36.842Z,-3.05
2022-12-13T11:08:09.839Z,-2.88
2022-12-13T11:17:41.285Z,-2.74
2022-12-13T11:27:15.037Z,-2.62
2022-12-13T11:36:45.605Z,-2.50
2022-12-13T11:46:16.380Z,-2.37
2022-12-13T11:55:47.816Z,-2.24
2022-12-13T11:56:54.871Z,-2.19
2022-12-13T12:06:22.395Z,-2.11
2022-12-13T12:11:24.772Z,-1.97
2022-12-13T12:25:35.590Z,-1.86
2022-12-13T12:31:50.489Z,-1.85
2022-12-13T12:32:44.656Z,-1.85
2022-12-13T12:39:45.786Z,-1.93
2022-12-13T12:53:57.223Z,-2.06
2022-12-13T13:08:08.298Z,-2.08
2022-12-13T13:22:30.404Z,-2.09
2022-12-13T13:36:28.801Z,-2.05
2022-12-13T13:50:40.248Z,-1.89
2022-12-13T14:04:51.662Z,-1.82
2022-12-13T14:19:02.309Z,-2.07
2022-12-13T14:33:13.600Z,-2.33
2022-12-13T14:47:25.795Z,-2.53
2022-12-13T15:01:32.376Z,-2.76
2022-12-13T15:15:44.442Z,-2.84
2022-12-13T15:29:55.343Z,-3
2022-12-13T15:44:02.451Z,-3.11
2022-12-13T15:58:13.311Z,-3.21
2022-12-13T16:12:24.156Z,-3.17
2022-12-13T16:26:36.007Z,-3.14
2022-12-13T16:40:47.721Z,-3.28
2022-12-13T16:54:58.062Z,-3.44
2022-12-13T17:09:09.351Z,-3.59
2022-12-13T17:23:20.859Z,-3.5
2022-12-13T17:51:42.922Z,-3.52
2022-12-13T18:05:54.260Z,-3.57
2022-12-13T18:20:07.018Z,-3.51
2022-12-13T18:34:15.931Z,-3.48
2022-12-13T18:48:28.937Z,-3.55
2022-12-13T19:02:36.766Z,-3.54
2022-12-13T19:16:47.385Z,-3.59
2022-12-13T19:30:58.718Z,-3.57
2022-12-13T19:45:10.912Z,-3.63
2022-12-13T19:59:18.853Z,-3.72
2022-12-13T20:13:30.220Z,-3.7
2022-12-13T20:27:41.717Z,-3.61
2022-12-13T20:41:52.904Z,-3.59
2022-12-13T20:56:03.255Z,-3.54
2022-12-13T21:10:16.781Z,-3.51
2022-12-13T21:24:25.107Z,-3.48
2022-12-13T21:38:34.178Z,-3.41
2022-12-13T21:52:49.721Z,-3.38
2022-12-13T22:06:56.172Z,-3.39
2022-12-13T22:21:07.858Z,-3.37
2022-12-13T22:35:16.921Z,-3.34
2022-12-13T23:03:39.691Z,-3.26
2022-12-13T23:17:51.413Z,-3.17
2022-12-13T23:32:02.307Z,-3.1
2022-12-13T23:46:12.933Z,-3.11
